El Vigia, Venezuela
Current Conditions -  °F | °C
As of 12:00 PM on Wednesday 26 Nov 2014 (Local Time) from SVVG Reporting Station
Broken Clouds Broken Clouds  
Wind Chill: 32°   Ceiling: 1300
Heat Index: 39°   Visibility: 6mi
Dew Point: 25°   Wind: 0mph
Humidity: 66%   Direction: NA
Pressure: 29.85"   Gusts: NA
Location:  8.63°N, 71.65°W
Report Text: SVVG 261600Z 00000KT 9999 BKN013 32/25 Q1011
Loading
Personal Weather Stations






























Interactive Weather Map New forecast layout! Learn more

10-Day Weather Forecast

Advertisements
Track Severe Weather on mobile